»·PEaware :: QXE2379 KJAC-KSEA

QXE2379 :: KJAC-KSEA

FLIGHT INFORMATION

Flight Status: Arrived
Operator:
Horizon Air
More flights by this operator :: More flights under this callsign
Pilot: Brian N. (26816)
Aircraft: DEHAVILLAND DASH 8 400
(DH8D)
More flights by this aircraft type
Origin: KJAC Jackson Hole
United States
Destination: KSEA Seattle-Tacoma Intl
United States
More flights between these airports :: More routes between these airports
Route: ALPIN2 IDA SUNED CHINS4
File this flight plan on PilotEdge
Remarks: RMK / SIMBRIEF
Altitude:
(Current/Filed)
22,000ft
Speed:
(Current/Filed)
317kts
Departed: 02-Feb-21 07:07 PM
Arrived: 02-Feb-21 09:16 PM
Distance/Time
Traveled:
537nm/2:09
Distance/Time
To Go:
Arrived

Flight Plot

Page will automatically refresh every two minutes.

Flight plan parsing failed; only flown route is shown


Map Options




Map Legend


Flown Route
Filed Route
Departure Airport
Arrival Airport
Navaid (VOR, NDB)
Fix

Horizontal Profiles

Position Reports

Time Latitude Longitude Heading Altitude Ground
Speed
02-Feb-21 18:42 43.604256 -110.736687 109 6457ft 0kts
02-Feb-21 18:43 43.604256 -110.736687 109 6457ft 0kts
02-Feb-21 18:43 43.604256 -110.736686 109 6457ft 0kts
02-Feb-21 18:45 43.604256 -110.736686 109 6457ft 0kts
02-Feb-21 18:46 43.604256 -110.736686 109 6457ft 0kts
02-Feb-21 18:46 43.604256 -110.736686 109 6457ft 0kts
02-Feb-21 18:48 43.604256 -110.736686 109 6457ft 0kts
02-Feb-21 18:48 43.604256 -110.736686 109 6457ft 0kts
02-Feb-21 18:49 43.604256 -110.736686 109 6457ft 0kts
02-Feb-21 18:51 43.604256 -110.736686 109 6457ft 0kts
02-Feb-21 18:51 43.604256 -110.736686 109 6457ft 0kts
02-Feb-21 18:52 43.604256 -110.736686 109 6457ft 0kts
02-Feb-21 18:53 43.604256 -110.736686 109 6457ft 0kts
02-Feb-21 18:54 43.604256 -110.736686 109 6457ft 0kts
02-Feb-21 18:55 43.604256 -110.736686 109 6457ft 0kts
02-Feb-21 18:56 43.604256 -110.736686 109 6458ft 0kts
02-Feb-21 18:57 43.604256 -110.736686 109 6458ft 0kts
02-Feb-21 18:58 43.604256 -110.736686 109 6458ft 0kts
02-Feb-21 18:59 43.604484 -110.737493 109 6458ft 0kts
02-Feb-21 19:00 43.604484 -110.737494 109 6458ft 0kts
02-Feb-21 19:01 43.604552 -110.737351 35 6458ft 4kts
02-Feb-21 19:02 43.609171 -110.735250 19 6458ft 24kts
02-Feb-21 19:03 43.614481 -110.732627 20 6458ft 6kts
02-Feb-21 19:04 43.614688 -110.732523 19 6458ft 7kts
02-Feb-21 19:05 43.614963 -110.734055 198 6458ft 0kts
02-Feb-21 19:06 43.603343 -110.739669 200 6458ft 43kts
02-Feb-21 19:07 43.599904 -110.739826 26 6458ft 0kts
02-Feb-21 19:08 43.601471 -110.738994 19 6458ft 20kts
02-Feb-21 19:09 43.608744 -110.735518 19 6458ft 26kts
02-Feb-21 19:10 43.613021 -110.733394 19 6458ft 7kts
02-Feb-21 19:11 43.609563 -110.736739 199 6458ft 96kts
02-Feb-21 19:12 43.577698 -110.756059 216 7841ft 138kts
02-Feb-21 19:13 43.542442 -110.789119 207 9792ft 162kts
02-Feb-21 19:14 43.497070 -110.818852 205 11815ft 187kts
02-Feb-21 19:15 43.449204 -110.847777 207 14318ft 186kts
02-Feb-21 19:16 43.399181 -110.878806 209 15947ft 227kts
02-Feb-21 19:17 43.338481 -110.915637 209 17935ft 244kts
02-Feb-21 19:18 43.275632 -110.953505 213 20116ft 246kts
02-Feb-21 19:19 43.245256 -111.031386 264 22008ft 246kts
02-Feb-21 19:20 43.259511 -111.128204 279 22111ft 287kts
02-Feb-21 19:21 43.288275 -111.233776 283 22051ft 298kts
02-Feb-21 19:22 43.318628 -111.340509 283 22044ft 301kts
02-Feb-21 19:23 43.349132 -111.448756 283 22033ft 303kts
02-Feb-21 19:24 43.379478 -111.557779 283 22023ft 304kts
02-Feb-21 19:25 43.409066 -111.664079 282 22009ft 304kts
02-Feb-21 19:26 43.436928 -111.764713 282 21998ft 304kts
02-Feb-21 19:27 43.465716 -111.869374 282 21984ft 304kts
02-Feb-21 19:28 43.495661 -111.978474 282 21981ft 304kts
02-Feb-21 19:29 43.527439 -112.084391 290 21981ft 311kts
02-Feb-21 19:30 43.570732 -112.189025 289 21980ft 311kts
02-Feb-21 19:31 43.611380 -112.290407 289 21978ft 311kts
02-Feb-21 19:32 43.653401 -112.395398 289 21976ft 311kts
02-Feb-21 19:33 43.695500 -112.500942 289 21974ft 311kts
02-Feb-21 19:34 43.737335 -112.606218 289 21972ft 311kts
02-Feb-21 19:35 43.778967 -112.711237 289 21971ft 311kts
02-Feb-21 19:36 43.820530 -112.816753 289 21970ft 311kts
02-Feb-21 19:37 43.860942 -112.919590 289 21955ft 312kts
02-Feb-21 19:38 43.901609 -113.023391 289 21946ft 313kts
02-Feb-21 19:39 43.941352 -113.125249 288 21942ft 313kts
02-Feb-21 19:40 43.981793 -113.229349 288 21938ft 313kts
02-Feb-21 19:41 44.023389 -113.336407 288 21931ft 313kts
02-Feb-21 19:42 44.064716 -113.443845 288 21928ft 313kts
02-Feb-21 19:43 44.106309 -113.552178 287 21941ft 313kts
02-Feb-21 19:44 44.147072 -113.658585 288 21921ft 311kts
02-Feb-21 19:45 44.187657 -113.764899 287 21896ft 311kts
02-Feb-21 19:46 44.228002 -113.871119 287 21907ft 306kts
02-Feb-21 19:47 44.267326 -113.974871 287 21892ft 303kts
02-Feb-21 19:48 44.306578 -114.078942 288 21901ft 299kts
02-Feb-21 19:49 44.345540 -114.182766 285 21892ft 298kts
02-Feb-21 19:50 44.383848 -114.285347 286 21889ft 296kts
02-Feb-21 19:51 44.420714 -114.383844 286 21911ft 296kts
02-Feb-21 19:52 44.459276 -114.488211 285 21886ft 305kts
02-Feb-21 19:53 44.499372 -114.595816 286 21892ft 307kts
02-Feb-21 19:54 44.538807 -114.702963 285 21902ft 308kts
02-Feb-21 19:55 44.578010 -114.809769 286 21899ft 310kts
02-Feb-21 19:56 44.615099 -114.911258 284 21895ft 310kts
02-Feb-21 19:57 44.653100 -115.015053 286 21916ft 312kts
02-Feb-21 19:58 44.692222 -115.123194 283 21924ft 312kts
02-Feb-21 19:59 44.731123 -115.230802 285 21919ft 314kts
02-Feb-21 20:00 44.767615 -115.331658 286 21940ft 317kts
02-Feb-21 20:01 44.804832 -115.435236 285 21900ft 319kts
02-Feb-21 20:02 44.844467 -115.546336 285 21923ft 317kts
02-Feb-21 20:03 44.884050 -115.657986 285 21933ft 319kts
02-Feb-21 20:04 44.922275 -115.767851 283 21931ft 317kts
02-Feb-21 20:05 44.961166 -115.877187 285 21929ft 318kts
02-Feb-21 20:06 45.000993 -115.988921 285 21931ft 319kts
02-Feb-21 20:07 45.039899 -116.100117 284 21912ft 319kts
02-Feb-21 20:08 45.079553 -116.213714 285 21920ft 321kts
02-Feb-21 20:09 45.118347 -116.325545 284 21933ft 322kts
02-Feb-21 20:10 45.157924 -116.439710 284 21962ft 321kts
02-Feb-21 20:11 45.197196 -116.553859 284 21961ft 323kts
02-Feb-21 20:12 45.236687 -116.669010 284 21955ft 324kts
02-Feb-21 20:14 45.275546 -116.782803 284 21952ft 325kts
02-Feb-21 20:15 45.315133 -116.899073 284 21949ft 325kts
02-Feb-21 20:16 45.352999 -117.011121 284 21947ft 325kts
02-Feb-21 20:17 45.392202 -117.127211 284 21944ft 325kts
02-Feb-21 20:18 45.430244 -117.240695 284 21944ft 325kts
02-Feb-21 20:19 45.469241 -117.357292 283 21944ft 325kts
02-Feb-21 20:20 45.508150 -117.474421 283 21947ft 326kts
02-Feb-21 20:21 45.547036 -117.591691 283 21954ft 326kts
02-Feb-21 20:22 45.585285 -117.707612 283 21960ft 326kts
02-Feb-21 20:23 45.623969 -117.825558 283 21964ft 327kts
02-Feb-21 20:24 45.662663 -117.944026 283 21967ft 328kts
02-Feb-21 20:25 45.701283 -118.062838 283 21960ft 329kts
02-Feb-21 20:26 45.738344 -118.177191 283 21956ft 329kts
02-Feb-21 20:27 45.776364 -118.295195 283 21956ft 330kts
02-Feb-21 20:28 45.814588 -118.414323 283 21958ft 330kts
02-Feb-21 20:28 45.846356 -118.513922 283 21966ft 330kts
02-Feb-21 20:30 45.890146 -118.651528 284 21971ft 330kts
02-Feb-21 20:31 45.927586 -118.770022 284 21973ft 330kts
02-Feb-21 20:31 45.957934 -118.866694 284 21975ft 330kts
02-Feb-21 20:33 46.002045 -119.007456 285 21978ft 331kts
02-Feb-21 20:33 46.032652 -119.106410 286 21977ft 332kts
02-Feb-21 20:34 46.069245 -119.223225 288 21973ft 334kts
02-Feb-21 20:35 46.107231 -119.345611 288 21969ft 335kts
02-Feb-21 20:36 46.144983 -119.468034 288 21965ft 337kts
02-Feb-21 20:37 46.181669 -119.587496 288 21963ft 338kts
02-Feb-21 20:38 46.219487 -119.711435 288 21961ft 339kts
02-Feb-21 20:39 46.257540 -119.836495 288 21957ft 340kts
02-Feb-21 20:40 46.296491 -119.961111 295 21952ft 344kts
02-Feb-21 20:41 46.355207 -120.065719 304 21952ft 349kts
02-Feb-21 20:42 46.416096 -120.172172 304 21947ft 349kts
02-Feb-21 20:43 46.477607 -120.280613 304 21934ft 349kts
02-Feb-21 20:44 46.538817 -120.388957 304 21922ft 349kts
02-Feb-21 20:45 46.596922 -120.497325 299 21916ft 347kts
02-Feb-21 20:46 46.650519 -120.612645 299 21914ft 346kts
02-Feb-21 20:47 46.705206 -120.727459 300 21126ft 346kts
02-Feb-21 20:48 46.758855 -120.840859 300 19120ft 334kts
02-Feb-21 20:49 46.808591 -120.946063 300 17218ft 329kts
02-Feb-21 20:50 46.860704 -121.056499 300 15197ft 325kts
02-Feb-21 20:51 46.911128 -121.164193 300 13210ft 322kts
02-Feb-21 20:52 46.960741 -121.270432 299 11173ft 296kts
02-Feb-21 20:53 47.004483 -121.365057 300 9992ft 271kts
02-Feb-21 20:54 47.044581 -121.450962 297 9933ft 245kts
02-Feb-21 20:55 47.081168 -121.530145 297 9918ft 227kts
02-Feb-21 20:56 47.113946 -121.601559 296 9941ft 216kts
02-Feb-21 20:57 47.147581 -121.675639 298 9983ft 237kts
02-Feb-21 20:58 47.186380 -121.761035 298 9968ft 270kts
02-Feb-21 20:59 47.229041 -121.853140 300 9993ft 279kts
02-Feb-21 21:00 47.268665 -121.937315 297 9976ft 280kts
02-Feb-21 21:01 47.307556 -122.026536 298 9987ft 281kts
02-Feb-21 21:02 47.342525 -122.104732 299 9976ft 281kts
02-Feb-21 21:03 47.406304 -122.157632 353 9785ft 301kts
02-Feb-21 21:04 47.484639 -122.155253 358 8218ft 272kts
02-Feb-21 21:05 47.549482 -122.154117 359 6689ft 236kts
02-Feb-21 21:06 47.612645 -122.152983 358 5085ft 222kts
02-Feb-21 21:07 47.659292 -122.181328 283 3756ft 184kts
02-Feb-21 21:08 47.669996 -122.254078 276 3026ft 185kts
02-Feb-21 21:09 47.656287 -122.312110 187 3017ft 165kts
02-Feb-21 21:10 47.615107 -122.315422 179 3011ft 157kts
02-Feb-21 21:11 47.571488 -122.316747 180 2557ft 157kts
02-Feb-21 21:12 47.531087 -122.317369 179 1758ft 132kts
02-Feb-21 21:13 47.496849 -122.317865 178 1094ft 126kts
02-Feb-21 21:14 47.462926 -122.317952 178 461ft 109kts
02-Feb-21 21:15 47.454108 -122.316696 36 440ft 16kts
02-Feb-21 21:16 47.455040 -122.311899 92 440ft 19kts
02-Feb-21 21:17 47.454918 -122.306359 163 441ft 18kts
02-Feb-21 21:18 47.448316 -122.306238 176 440ft 23kts
02-Feb-21 21:19 47.446907 -122.304777 128 440ft 0kts
02-Feb-21 21:20 47.446907 -122.304777 128 440ft 0kts

Navigation Log

Ident Type
Flight plan parsing failed, navigation log unavailable